createdAt,value
2019-02-02T00:00:02.209Z,24.87
2019-02-02T00:02:34.423Z,25.27
2019-02-02T00:05:06.567Z,24.87
2019-02-02T00:07:38.139Z,24.10
2019-02-02T00:10:09.704Z,25.00
2019-02-02T00:12:41.244Z,26.27
2019-02-02T00:15:12.775Z,26.48
2019-02-02T00:17:44.461Z,25.80
2019-02-02T00:20:16.079Z,25.45
2019-02-02T00:22:48.077Z,25.95
2019-02-02T00:25:19.152Z,27.02
2019-02-02T00:27:50.239Z,25.85
2019-02-02T00:30:21.882Z,25.27
2019-02-02T00:32:54.186Z,23.95
2019-02-02T00:35:25.791Z,25.17
2019-02-02T00:37:57.483Z,24.27
2019-02-02T00:40:29.663Z,25.30
2019-02-02T00:43:01.875Z,26.05
2019-02-02T00:45:33.577Z,24.67
2019-02-02T00:48:05.856Z,24.75
2019-02-02T00:50:37.187Z,24.63
2019-02-02T00:53:08.946Z,25.62
2019-02-02T00:55:41.003Z,25.72
2019-02-02T00:58:12.422Z,25.95
2019-02-02T01:00:44.326Z,26.35
2019-02-02T01:03:16.467Z,26.30
2019-02-02T01:05:47.814Z,24.98
2019-02-02T01:08:19.606Z,26.07
2019-02-02T01:10:50.980Z,26.87
2019-02-02T01:13:22.491Z,25.90
2019-02-02T01:15:54.268Z,26.30
2019-02-02T01:18:25.565Z,27.60
2019-02-02T01:20:57.459Z,25.65
2019-02-02T01:23:28.772Z,27.32
2019-02-02T01:25:59.845Z,26.45
2019-02-02T01:28:31.718Z,27.32
2019-02-02T01:31:03.521Z,26.60
2019-02-02T01:33:34.794Z,26.45
2019-02-02T01:36:06.676Z,25.30
2019-02-02T01:38:38.225Z,27.50
2019-02-02T01:41:09.634Z,24.87
2019-02-02T01:43:41.208Z,25.95
2019-02-02T01:46:12.855Z,25.17
2019-02-02T01:48:44.839Z,25.77
2019-02-02T01:51:16.555Z,26.73
2019-02-02T01:53:48.378Z,25.60
2019-02-02T01:56:19.659Z,24.95
2019-02-02T01:58:51.564Z,26.87
2019-02-02T02:01:23.875Z,25.50
2019-02-02T02:03:55.809Z,24.90
2019-02-02T02:06:26.810Z,26.20
2019-02-02T02:08:58.447Z,26.02
2019-02-02T02:11:29.737Z,25.37
2019-02-02T02:14:01.059Z,27.52
2019-02-02T02:16:32.398Z,26.20
2019-02-02T02:19:03.994Z,28.02
2019-02-02T02:21:35.327Z,27.87
2019-02-02T02:24:06.494Z,26.07
2019-02-02T02:26:37.719Z,28.07
2019-02-02T02:29:12.154Z,29.90
2019-02-02T02:31:44.202Z,28.10
2019-02-02T02:34:15.860Z,29.07
2019-02-02T02:36:47.420Z,29.65
2019-02-02T02:39:19.496Z,29.80
2019-02-02T02:41:51.129Z,29.45
2019-02-02T02:44:23.228Z,28.40
2019-02-02T02:46:54.855Z,29.85
2019-02-02T02:49:26.687Z,29.05
2019-02-02T02:51:58.263Z,31.20
2019-02-02T02:54:29.831Z,28.75
2019-02-02T02:57:01.945Z,30.25
2019-02-02T02:59:33.630Z,30.05
2019-02-02T03:02:05.293Z,31.27
2019-02-02T03:04:37.172Z,30.50
2019-02-02T03:07:09.205Z,29.92
2019-02-02T03:09:40.538Z,29.52
2019-02-02T03:12:11.831Z,29.63
2019-02-02T03:14:43.560Z,28.92
2019-02-02T03:17:15.838Z,27.37
2019-02-02T03:19:47.180Z,28.05
2019-02-02T03:22:18.905Z,27.25
2019-02-02T03:24:51.022Z,27.25
2019-02-02T03:27:22.626Z,26.68
2019-02-02T03:29:54.572Z,28.65
2019-02-02T03:32:26.412Z,26.77
2019-02-02T03:34:58.005Z,29.07
2019-02-02T03:37:29.773Z,27.80
2019-02-02T03:40:01.564Z,27.93
2019-02-02T03:42:33.246Z,29.70
2019-02-02T03:45:05.393Z,28.52
2019-02-02T03:47:36.677Z,29.72
2019-02-02T03:50:09.121Z,29.67
2019-02-02T03:52:41.162Z,30.05
2019-02-02T03:55:14.478Z,29.25
2019-02-02T03:57:46.406Z,29.63
2019-02-02T04:00:22.718Z,30.50
2019-02-02T04:02:54.430Z,30.57
2019-02-02T04:05:28.190Z,29.67
2019-02-02T04:08:00.242Z,30.45
2019-02-02T04:10:32.051Z,29.82
2019-02-02T04:13:03.914Z,28.57
2019-02-02T04:15:35.625Z,30.80
2019-02-02T04:18:06.996Z,31.05
2019-02-02T04:20:38.551Z,31.07
2019-02-02T04:23:10.293Z,31.25
2019-02-02T04:25:42.124Z,29.67
2019-02-02T04:28:13.708Z,29.55
2019-02-02T04:30:44.866Z,30.45
2019-02-02T04:33:16.442Z,29.87
2019-02-02T04:35:48.163Z,29.48
2019-02-02T04:38:19.823Z,27.70
2019-02-02T04:40:51.585Z,29.67
2019-02-02T04:43:22.904Z,30.05
2019-02-02T04:45:54.459Z,29.72
2019-02-02T04:48:26.488Z,30.32
2019-02-02T04:50:57.926Z,28.92
2019-02-02T04:53:29.901Z,29.90
2019-02-02T04:56:01.533Z,29.72
2019-02-02T04:58:33.440Z,29.32
2019-02-02T05:01:04.851Z,30.52
2019-02-02T05:03:36.257Z,31.12
2019-02-02T05:06:07.779Z,28.83
2019-02-02T05:08:39.065Z,30.65
2019-02-02T05:11:10.076Z,31.45
2019-02-02T05:13:41.977Z,29.70
2019-02-02T05:16:13.613Z,32.13
2019-02-02T05:18:44.916Z,32.17
2019-02-02T05:21:16.178Z,30.43
2019-02-02T05:23:47.452Z,32.15
2019-02-02T05:26:19.050Z,32.42
2019-02-02T05:28:51.129Z,30.27
2019-02-02T05:31:22.857Z,31.40
2019-02-02T05:33:54.874Z,32.23
2019-02-02T05:36:26.557Z,30.92
2019-02-02T05:38:57.893Z,32.88
2019-02-02T05:41:29.241Z,33.65
2019-02-02T05:44:01.131Z,31.60
2019-02-02T05:46:32.459Z,32.67
2019-02-02T05:49:04.026Z,30.43
2019-02-02T05:51:35.292Z,32.78
2019-02-02T05:54:06.582Z,31.77
2019-02-02T05:56:38.256Z,32.70
2019-02-02T05:59:11.701Z,32.48
2019-02-02T06:01:43.002Z,31.60
2019-02-02T06:04:14.679Z,33.05
2019-02-02T06:06:45.693Z,31.37
2019-02-02T06:09:16.685Z,32.25
2019-02-02T06:11:48.490Z,34.73
2019-02-02T06:14:20.419Z,33.13
2019-02-02T06:16:51.898Z,33.88
2019-02-02T06:19:23.691Z,34.67
2019-02-02T06:21:55.235Z,32.48
2019-02-02T06:24:26.551Z,31.60
2019-02-02T06:26:57.799Z,32.55
2019-02-02T06:29:28.795Z,32.10
2019-02-02T06:32:11.513Z,33.35
2019-02-02T06:34:34.509Z,32.38
2019-02-02T06:37:06.186Z,31.42
2019-02-02T06:39:37.686Z,32.15
2019-02-02T06:42:08.962Z,33.88
2019-02-02T06:44:40.542Z,30.97
2019-02-02T06:47:12.614Z,33.98
2019-02-02T06:49:44.777Z,32.08
2019-02-02T06:52:16.417Z,32.85
2019-02-02T06:54:48.209Z,33.48
2019-02-02T06:57:19.736Z,33.05
2019-02-02T06:59:51.070Z,34.10
2019-02-02T07:02:22.392Z,33.20
2019-02-02T07:04:53.898Z,31.12
2019-02-02T07:07:26.063Z,34.70
2019-02-02T07:09:57.668Z,33.50
2019-02-02T07:12:29.285Z,34.03
2019-02-02T07:15:01.137Z,32.98
2019-02-02T07:17:33.048Z,33.85
2019-02-02T07:20:04.778Z,33.05
2019-02-02T07:22:36.596Z,35.13
2019-02-02T07:25:08.315Z,33.80
2019-02-02T07:27:39.565Z,40.75
2019-02-02T07:30:27.631Z,35.28
2019-02-02T07:32:50.831Z,33.58
2019-02-02T07:35:22.241Z,38.33
2019-02-02T07:37:53.973Z,32.58
2019-02-02T07:40:25.548Z,34.98
2019-02-02T07:42:56.976Z,33.50
2019-02-02T07:45:31.123Z,32.20
2019-02-02T07:48:03.160Z,30.70
2019-02-02T07:50:34.345Z,33.60
2019-02-02T07:53:06.155Z,33.33
2019-02-02T07:55:37.944Z,32.90
2019-02-02T07:58:09.498Z,32.45
2019-02-02T08:00:41.721Z,31.93
2019-02-02T08:03:14.347Z,34.30
2019-02-02T08:05:46.015Z,33.20
2019-02-02T08:08:18.150Z,34.43
2019-02-02T08:10:49.826Z,35.08
2019-02-02T08:13:21.162Z,31.95
2019-02-02T08:15:52.574Z,33.50
2019-02-02T08:18:23.970Z,32.75
2019-02-02T08:20:55.268Z,32.93
2019-02-02T08:23:26.924Z,33.67
2019-02-02T08:25:58.702Z,35.25
2019-02-02T08:28:30.059Z,35.80
2019-02-02T08:31:01.692Z,35.43
2019-02-02T08:33:33.229Z,33.42
2019-02-02T08:36:05.610Z,35.45
2019-02-02T08:38:37.286Z,33.92
2019-02-02T08:41:09.138Z,32.98
2019-02-02T08:43:40.944Z,36.60
2019-02-02T08:46:12.621Z,32.13
2019-02-02T08:48:43.954Z,31.07
2019-02-02T08:51:15.780Z,31.48
2019-02-02T08:53:47.116Z,32.88
2019-02-02T08:56:18.434Z,33.67
2019-02-02T08:58:49.774Z,35.20
2019-02-02T09:01:21.568Z,33.18
2019-02-02T09:03:53.728Z,32.15
2019-02-02T09:06:25.301Z,34.43
2019-02-02T09:08:56.633Z,34.20
2019-02-02T09:11:27.649Z,32.42
2019-02-02T09:13:59.526Z,33.50
2019-02-02T09:16:30.786Z,32.15
2019-02-02T09:19:02.427Z,38.95
2019-02-02T09:21:33.955Z,33.08
2019-02-02T09:24:05.766Z,34.63
2019-02-02T09:26:37.700Z,32.48
2019-02-02T09:29:10.518Z,35.23
2019-02-02T09:31:42.253Z,32.98
2019-02-02T09:34:13.890Z,37.35
2019-02-02T09:36:45.236Z,37.35
2019-02-02T09:39:17.138Z,33.23
2019-02-02T09:41:49.286Z,32.98
2019-02-02T09:44:20.974Z,33.83
2019-02-02T09:46:53.432Z,33.18
2019-02-02T09:49:25.030Z,34.78
2019-02-02T09:51:56.394Z,35.90
2019-02-02T09:54:27.798Z,35.45
2019-02-02T09:56:59.850Z,36.88
2019-02-02T09:59:31.432Z,36.55
2019-02-02T10:02:03.018Z,36.68
2019-02-02T10:04:34.915Z,44.10
2019-02-02T10:07:06.599Z,39.83
2019-02-02T10:09:38.560Z,36.85
2019-02-02T10:12:09.811Z,33.98
2019-02-02T10:14:41.296Z,34.38
2019-02-02T10:17:13.194Z,33.30
2019-02-02T10:19:45.375Z,31.33
2019-02-02T10:22:17.332Z,32.20
2019-02-02T10:24:49.227Z,33.02
2019-02-02T10:27:21.816Z,35.00
2019-02-02T10:29:53.670Z,32.78
2019-02-02T10:32:24.775Z,32.67
2019-02-02T10:34:56.134Z,35.13
2019-02-02T10:37:27.717Z,34.23
2019-02-02T10:39:59.329Z,33.15
2019-02-02T10:42:31.126Z,34.92
2019-02-02T10:45:02.439Z,33.60
2019-02-02T10:47:34.369Z,33.28
2019-02-02T10:50:06.997Z,32.80
2019-02-02T10:52:38.643Z,32.70
2019-02-02T10:55:11.742Z,34.08
2019-02-02T10:57:43.271Z,34.35
2019-02-02T11:00:24.321Z,31.25
2019-02-02T11:02:56.086Z,34.92
2019-02-02T11:05:27.713Z,34.75
2019-02-02T11:07:59.829Z,36.28
2019-02-02T11:10:32.437Z,39.38
2019-02-02T11:13:05.876Z,39.75
2019-02-02T11:15:37.149Z,38.98
2019-02-02T11:18:09.272Z,36.70
2019-02-02T11:20:40.766Z,36.83
2019-02-02T11:23:12.471Z,39.27
2019-02-02T11:25:44.946Z,37.50
2019-02-02T11:28:15.923Z,37.48
2019-02-02T11:30:47.657Z,37.63
2019-02-02T11:33:19.714Z,37.55
2019-02-02T11:35:52.467Z,38.67
2019-02-02T11:38:23.810Z,35.78
2019-02-02T11:40:55.773Z,36.58
2019-02-02T11:43:27.786Z,35.17
2019-02-02T11:45:59.451Z,38.10
2019-02-02T11:48:31.150Z,37.78
2019-02-02T11:51:02.396Z,38.28
2019-02-02T11:53:37.343Z,40.05
2019-02-02T11:56:07.507Z,38.88
2019-02-02T11:58:38.865Z,41.13
2019-02-02T12:01:10.448Z,38.15
2019-02-02T12:03:42.054Z,38.23
2019-02-02T12:06:13.681Z,39.45
2019-02-02T12:08:45.781Z,37.75
2019-02-02T12:11:17.253Z,37.00
2019-02-02T12:13:48.845Z,35.83
2019-02-02T12:16:20.407Z,37.85
2019-02-02T12:18:52.405Z,34.88
2019-02-02T12:21:24.408Z,35.50
2019-02-02T12:23:56.455Z,35.90
2019-02-02T12:26:28.400Z,35.50
2019-02-02T12:28:59.780Z,34.25
2019-02-02T12:31:31.326Z,38.85
2019-02-02T12:34:03.262Z,34.18
2019-02-02T12:36:35.099Z,36.60
2019-02-02T12:39:11.407Z,35.05
2019-02-02T12:41:43.182Z,34.80
2019-02-02T12:44:15.532Z,36.48
2019-02-02T12:46:47.085Z,43.70
2019-02-02T12:49:18.980Z,35.38
2019-02-02T12:51:50.814Z,35.92
2019-02-02T12:54:22.671Z,39.92
2019-02-02T12:56:54.840Z,38.05
2019-02-02T12:59:27.207Z,37.55
2019-02-02T13:01:58.892Z,35.75
2019-02-02T13:04:30.557Z,35.55
2019-02-02T13:07:02.260Z,32.48
2019-02-02T13:09:34.039Z,31.85
2019-02-02T13:12:05.793Z,31.55
2019-02-02T13:14:38.003Z,29.52
2019-02-02T13:17:10.026Z,31.45
2019-02-02T13:19:41.574Z,30.37
2019-02-02T13:22:14.092Z,30.12
2019-02-02T13:24:45.788Z,29.82
2019-02-02T13:27:17.890Z,43.95
2019-02-02T13:29:52.173Z,31.05
2019-02-02T13:32:23.271Z,33.45
2019-02-02T13:34:56.705Z,29.82
2019-02-02T13:37:30.064Z,26.25
2019-02-02T13:40:03.767Z,25.72
2019-02-02T13:42:35.283Z,27.22
2019-02-02T13:45:08.474Z,26.55
2019-02-02T13:47:40.959Z,27.07
2019-02-02T13:50:15.766Z,24.95
2019-02-02T13:52:48.097Z,26.40
2019-02-02T13:55:19.855Z,25.50
2019-02-02T13:57:52.095Z,25.25
2019-02-02T14:00:29.306Z,24.30
2019-02-02T14:03:03.270Z,28.27
2019-02-02T14:05:33.951Z,28.87
2019-02-02T14:08:06.400Z,33.00
2019-02-02T14:10:37.631Z,30.00
2019-02-02T14:13:09.832Z,29.85
2019-02-02T14:15:42.040Z,28.83
2019-02-02T14:18:14.082Z,29.92
2019-02-02T14:20:45.997Z,29.60
2019-02-02T14:23:17.586Z,29.60
2019-02-02T14:25:49.281Z,30.00
2019-02-02T14:28:28.414Z,29.48
2019-02-02T14:30:54.429Z,30.43
2019-02-02T14:33:26.082Z,29.57
2019-02-02T14:35:58.294Z,33.15
2019-02-02T14:38:30.072Z,32.10
2019-02-02T14:41:01.475Z,30.48
2019-02-02T14:43:33.146Z,28.30
2019-02-02T14:46:04.648Z,31.23
2019-02-02T14:48:36.863Z,32.58
2019-02-02T14:51:08.188Z,30.00
2019-02-02T14:53:40.058Z,30.45
2019-02-02T14:56:11.515Z,30.52
2019-02-02T14:58:43.577Z,31.75
2019-02-02T15:01:15.213Z,30.35
2019-02-02T15:03:46.212Z,28.83
2019-02-02T15:06:17.486Z,30.57
2019-02-02T15:08:49.701Z,29.87
2019-02-02T15:11:21.029Z,29.57
2019-02-02T15:13:53.183Z,31.10
2019-02-02T15:16:24.966Z,30.68
2019-02-02T15:18:56.487Z,29.75
2019-02-02T15:21:27.843Z,30.08
2019-02-02T15:23:59.192Z,30.10
2019-02-02T15:26:30.806Z,31.75
2019-02-02T15:29:03.364Z,35.55
2019-02-02T15:31:35.501Z,32.65
2019-02-02T15:34:07.258Z,34.05
2019-02-02T15:36:38.352Z,30.90
2019-02-02T15:39:10.935Z,36.90
2019-02-02T15:41:52.605Z,33.40
2019-02-02T15:44:16.685Z,30.15
2019-02-02T15:46:49.458Z,32.15
2019-02-02T15:49:22.040Z,31.45
2019-02-02T15:51:53.849Z,31.33
2019-02-02T15:54:25.506Z,30.60
2019-02-02T15:56:57.385Z,31.30
2019-02-02T15:59:29.080Z,33.33
2019-02-02T16:02:00.348Z,32.67
2019-02-02T16:04:32.016Z,33.92
2019-02-02T16:07:03.771Z,33.40
2019-02-02T16:09:35.535Z,32.20
2019-02-02T16:12:07.381Z,32.10
2019-02-02T16:14:38.688Z,32.33
2019-02-02T16:17:10.330Z,31.07
2019-02-02T16:19:42.193Z,32.28
2019-02-02T16:22:14.315Z,33.92
2019-02-02T16:24:46.051Z,33.08
2019-02-02T16:27:17.983Z,32.80
2019-02-02T16:29:49.218Z,31.55
2019-02-02T16:32:20.878Z,33.42
2019-02-02T16:34:52.442Z,33.38
2019-02-02T16:37:24.120Z,30.55
2019-02-02T16:39:55.965Z,33.98
2019-02-02T16:42:27.878Z,32.83
2019-02-02T16:44:59.582Z,33.25
2019-02-02T16:47:31.095Z,31.85
2019-02-02T16:50:02.780Z,34.85
2019-02-02T16:52:33.865Z,32.93
2019-02-02T16:55:06.242Z,35.20
2019-02-02T16:57:37.983Z,36.58
2019-02-02T17:00:14.608Z,39.45
2019-02-02T17:02:46.121Z,38.92
2019-02-02T17:05:17.884Z,40.10
2019-02-02T17:07:49.146Z,34.80
2019-02-02T17:10:29.156Z,35.95
2019-02-02T17:13:00.796Z,32.95
2019-02-02T17:15:32.675Z,33.95
2019-02-02T17:18:04.511Z,33.25
2019-02-02T17:20:44.866Z,31.68
2019-02-02T17:23:16.261Z,34.18
2019-02-02T17:25:48.533Z,30.30
2019-02-02T17:28:20.419Z,33.15
2019-02-02T17:30:51.835Z,30.68
2019-02-02T17:33:26.607Z,37.53
2019-02-02T17:35:57.171Z,37.15
2019-02-02T17:38:28.584Z,35.35
2019-02-02T17:41:00.169Z,32.95
2019-02-02T17:43:32.242Z,32.63
2019-02-02T17:46:03.595Z,32.58
2019-02-02T17:48:35.215Z,34.73
2019-02-02T17:51:07.423Z,34.38
2019-02-02T17:53:39.386Z,39.33
2019-02-02T17:56:10.752Z,35.55
2019-02-02T17:58:42.190Z,36.48
2019-02-02T18:01:14.058Z,36.80
2019-02-02T18:03:46.067Z,35.35
2019-02-02T18:06:17.599Z,36.17
2019-02-02T18:08:49.757Z,34.43
2019-02-02T18:11:21.565Z,33.88
2019-02-02T18:13:53.432Z,33.08
2019-02-02T18:16:25.149Z,34.48
2019-02-02T18:18:56.641Z,32.98
2019-02-02T18:21:28.597Z,30.05
2019-02-02T18:24:00.376Z,31.93
2019-02-02T18:26:33.044Z,32.83
2019-02-02T18:29:04.388Z,33.95
2019-02-02T18:31:36.578Z,35.08
2019-02-02T18:34:07.925Z,33.60
2019-02-02T18:36:39.191Z,34.13
2019-02-02T18:39:11.155Z,33.48
2019-02-02T18:41:42.839Z,30.50
2019-02-02T18:44:14.227Z,31.73
2019-02-02T18:46:45.839Z,34.00
2019-02-02T18:49:17.414Z,32.90
2019-02-02T18:51:48.819Z,34.55
2019-02-02T18:54:20.669Z,34.45
2019-02-02T18:56:52.804Z,33.85
2019-02-02T18:59:25.257Z,36.28
2019-02-02T19:01:57.733Z,33.50
2019-02-02T19:04:29.411Z,33.25
2019-02-02T19:07:01.311Z,35.08
2019-02-02T19:09:33.614Z,34.83
2019-02-02T19:12:06.159Z,33.58
2019-02-02T19:14:37.780Z,37.13
2019-02-02T19:17:09.997Z,33.02
2019-02-02T19:19:42.337Z,33.45
2019-02-02T19:22:14.824Z,34.35
2019-02-02T19:24:47.194Z,34.83
2019-02-02T19:27:19.593Z,39.90
2019-02-02T19:29:53.072Z,34.65
2019-02-02T19:32:26.443Z,34.55
2019-02-02T19:34:59.853Z,35.52
2019-02-02T19:37:33.603Z,35.78
2019-02-02T19:40:08.568Z,37.67
2019-02-02T19:42:41.807Z,33.00
2019-02-02T19:45:17.315Z,29.87
2019-02-02T19:47:51.362Z,29.92
2019-02-02T19:50:27.024Z,29.30
2019-02-02T19:53:01.354Z,30.23
2019-02-02T19:55:35.917Z,27.62
2019-02-02T19:58:09.528Z,29.20
2019-02-02T20:00:43.475Z,28.07
2019-02-02T20:03:17.304Z,30.68
2019-02-02T20:05:50.785Z,30.82
2019-02-02T20:08:24.198Z,30.27
2019-02-02T20:10:58.232Z,29.07
2019-02-02T20:13:32.898Z,30.57
2019-02-02T20:16:06.411Z,32.95
2019-02-02T20:18:40.307Z,30.55
2019-02-02T20:21:13.747Z,32.83
2019-02-02T20:23:48.033Z,31.45
2019-02-02T20:26:22.664Z,35.17
2019-02-02T20:28:57.750Z,32.35
2019-02-02T20:31:32.343Z,34.75
2019-02-02T20:34:05.474Z,34.08
2019-02-02T20:36:40.198Z,35.60
2019-02-02T20:39:13.697Z,34.55
2019-02-02T20:41:47.535Z,37.08
2019-02-02T20:44:22.782Z,36.17
2019-02-02T20:46:56.505Z,35.60
2019-02-02T20:49:30.474Z,38.10
2019-02-02T20:52:03.491Z,38.53
2019-02-02T20:54:36.867Z,40.17
2019-02-02T20:57:10.535Z,39.53
2019-02-02T20:59:43.923Z,37.55
2019-02-02T21:02:16.926Z,40.23
2019-02-02T21:04:49.962Z,40.40
2019-02-02T21:07:23.624Z,41.95
2019-02-02T21:09:56.627Z,41.83
2019-02-02T21:12:30.426Z,41.75
2019-02-02T21:15:03.486Z,41.70
2019-02-02T21:17:37.557Z,43.83
2019-02-02T21:20:14.391Z,44.90
2019-02-02T21:22:46.746Z,45.35
2019-02-02T21:25:19.496Z,44.23
2019-02-02T21:27:53.121Z,43.33
2019-02-02T21:30:28.105Z,43.60
2019-02-02T21:33:01.204Z,44.58
2019-02-02T21:35:34.355Z,44.58
2019-02-02T21:38:07.143Z,46.15
2019-02-02T21:40:39.571Z,47.00
2019-02-02T21:43:12.852Z,46.58
2019-02-02T21:45:45.587Z,44.05
2019-02-02T21:48:17.752Z,44.13
2019-02-02T21:50:50.390Z,46.08
2019-02-02T21:53:23.423Z,44.80
2019-02-02T21:55:56.013Z,45.60
2019-02-02T21:58:27.798Z,45.03
2019-02-02T22:01:00.061Z,47.45
2019-02-02T22:03:32.268Z,47.55
2019-02-02T22:06:14.819Z,45.80
2019-02-02T22:08:37.759Z,47.62
2019-02-02T22:11:09.188Z,45.40
2019-02-02T22:13:42.505Z,47.55
2019-02-02T22:16:14.386Z,45.33
2019-02-02T22:18:47.148Z,45.70
2019-02-02T22:21:19.350Z,46.28
2019-02-02T22:23:54.759Z,44.85
2019-02-02T22:26:25.119Z,47.50
2019-02-02T22:28:57.885Z,47.08
2019-02-02T22:31:29.287Z,45.83
2019-02-02T22:34:00.850Z,48.08
2019-02-02T22:36:33.396Z,47.55
2019-02-02T22:39:08.010Z,49.50
2019-02-02T22:41:39.285Z,49.00
2019-02-02T22:44:10.644Z,48.05
2019-02-02T22:46:45.181Z,44.55
2019-02-02T22:49:16.411Z,44.27
2019-02-02T22:51:48.037Z,46.55
2019-02-02T22:54:19.641Z,46.73
2019-02-02T22:56:51.395Z,44.58
2019-02-02T22:59:22.744Z,49.10
2019-02-02T23:02:08.601Z,48.50
2019-02-02T23:05:09.039Z,46.23
2019-02-02T23:08:12.989Z,49.18
2019-02-02T23:11:37.265Z,48.08
2019-02-02T23:15:08.734Z,46.55
2019-02-02T23:17:40.355Z,46.83
2019-02-02T23:20:13.049Z,47.08
2019-02-02T23:22:45.011Z,45.70
2019-02-02T23:25:17.261Z,44.20
2019-02-02T23:27:49.558Z,47.10
2019-02-02T23:30:21.370Z,46.95
2019-02-02T23:32:53.258Z,45.52
2019-02-02T23:35:24.281Z,48.38
2019-02-02T23:37:55.626Z,47.25
2019-02-02T23:40:27.177Z,44.50
2019-02-02T23:42:59.344Z,45.15
2019-02-02T23:45:31.138Z,45.28
2019-02-02T23:48:02.740Z,43.78
2019-02-02T23:50:34.652Z,45.90
2019-02-02T23:53:07.406Z,42.70
2019-02-02T23:55:39.252Z,46.02
2019-02-02T23:58:11.154Z,46.45
